Time;durP1;ratioP1;P1;durP2;ratioP2;P2;SDS_P1;SDS_P2;PMS_P1;PMS_P2;Temp;Humidity;BMP_temperature;BMP_pressure;BME280_temperature;BME280_humidity;BME280_pressure;Samples;Min_cycle;Max_cycle;Signal;HPM_P1;HPM_P2
2023/03/03 07:35:36;;;;;;;4.43;3.77;;;2.50;99.90;3.60;102245.00;;;;6263239;22;1461189;-70
2023/03/03 07:38:58;;;;;;;3.70;3.40;;;2.60;99.90;4.20;102243.00;;;;6281421;22;20207;-70
2023/03/03 07:41:31;;;;;;;4.90;3.70;;;2.80;99.90;3.40;102238.00;;;;6202591;22;20298;-70
2023/03/03 07:44:06;;;;;;;6.03;4.97;;;2.80;99.90;3.70;102248.00;;;;6281773;22;20478;-70
2023/03/03 07:46:50;;;;;;;6.63;5.33;;;2.80;99.90;3.40;102203.00;;;;6281618;22;20225;-69
2023/03/03 07:49:42;;;;;;;1.20;1.20;;;2.80;99.90;3.90;102259.00;;;;6307229;22;20163;-69
2023/03/03 07:52:34;;;;;;;1.27;1.27;;;3.00;99.90;3.90;102260.00;;;;6306900;22;20225;-70
2023/03/03 07:55:24;;;;;;;0.60;0.60;;;2.90;99.90;4.00;102261.00;;;;6307425;22;20150;-69
2023/03/03 07:57:53;;;;;;;3.40;3.10;;;2.90;99.90;3.60;102257.00;;;;6281925;22;20164;-69
2023/03/03 08:00:22;;;;;;;3.40;1.40;;;2.90;99.90;3.70;102266.00;;;;6307346;22;20155;-69
2023/03/03 08:02:57;;;;;;;4.97;3.27;;;2.80;99.90;4.20;102230.00;;;;6307120;22;20171;-70
2023/03/03 08:05:37;;;;;;;4.57;3.27;;;3.00;99.90;4.00;102262.00;;;;6281129;22;20167;-70
2023/03/03 08:08:30;;;;;;;4.80;3.27;;;3.10;99.90;3.90;102271.00;;;;6306919;22;20163;-69
2023/03/03 08:11:00;;;;;;;6.30;4.73;;;3.00;99.90;3.60;102264.00;;;;6306371;22;20159;-70
2023/03/03 08:13:38;;;;;;;9.90;4.40;;;3.00;99.90;3.70;102275.00;;;;6308872;22;20164;-69
2023/03/03 08:16:10;;;;;;;10.17;7.10;;;2.90;99.90;3.20;102247.00;;;;6307127;22;20352;-70
2023/03/03 08:18:52;;;;;;;0.83;0.83;;;2.90;99.90;3.70;102262.00;;;;6306356;22;20281;-69
2023/03/03 08:21:25;;;;;;;4.57;4.20;;;2.80;99.90;3.80;102268.00;;;;6281253;22;20155;-70
2023/03/03 08:23:52;;;;;;;5.30;3.80;;;2.90;99.90;3.80;102271.00;;;;6307352;22;20475;-69
2023/03/03 08:26:24;;;;;;;2.47;2.27;;;3.00;99.90;4.60;102284.00;;;;6308249;22;20630;-70
2023/03/03 08:29:15;;;;;;;0.40;0.40;;;3.20;99.90;3.60;102278.00;;;;6306821;22;20144;-70
2023/03/03 08:31:47;;;;;;;2.70;2.10;;;3.00;99.90;3.80;102267.00;;;;6275535;22;20160;-69
2023/03/03 08:34:24;;;;;;;5.77;5.37;;;3.00;99.90;4.30;102291.00;;;;6280580;22;20174;-69
2023/03/03 08:36:51;;;;;;;6.53;5.20;;;3.10;99.90;3.70;102284.00;;;;6280571;22;20225;-70
2023/03/03 08:39:19;;;;;;;13.43;8.87;;;3.20;99.90;3.60;102278.00;;;;6306998;22;20136;-69
2023/03/03 08:42:03;;;;;;;9.47;6.43;;;3.10;99.90;4.30;102285.00;;;;6306497;22;20144;-69
2023/03/03 08:44:34;;;;;;;7.83;5.00;;;3.20;99.90;3.70;102285.00;;;;6306618;22;20194;-69
2023/03/03 08:47:04;;;;;;;6.63;4.27;;;3.10;99.90;4.10;102302.00;;;;6281196;22;20205;-69
2023/03/03 08:49:44;;;;;;;7.80;5.77;;;3.20;99.90;4.00;102300.00;;;;6306450;22;20137;-71
2023/03/03 08:52:10;;;;;;;5.27;4.63;;;3.20;99.90;4.10;102297.00;;;;6306873;22;20164;-70
2023/03/03 08:55:23;;;;;;;1.83;1.73;;;3.30;99.90;4.40;102291.00;;;;6281213;22;20187;-70
2023/03/03 08:57:57;;;;;;;8.70;2.83;;;3.40;99.90;4.10;102300.00;;;;6288967;22;20164;-72
2023/03/03 09:01:00;;;;;;;3.93;2.47;;;3.40;99.90;4.40;102318.00;;;;6280488;22;20203;-73
2023/03/03 09:03:26;;;;;;;6.10;5.53;;;3.50;99.90;4.30;102330.00;;;;6280229;22;20213;-74
2023/03/03 09:05:58;;;;;;;4.73;3.37;;;3.50;99.90;4.00;102320.00;;;;6306593;22;20140;-74
2023/03/03 09:08:27;;;;;;;12.47;7.97;;;3.40;99.90;3.80;102314.00;;;;6282040;22;20241;-73
2023/03/03 09:10:56;;;;;;;8.33;6.33;;;3.40;99.90;3.70;102330.00;;;;6279262;22;20209;-74
2023/03/03 09:13:35;;;;;;;7.97;4.17;;;3.20;99.90;3.90;102316.00;;;;6280177;22;20180;-73
2023/03/03 09:16:15;;;;;;;2.17;2.07;;;3.20;99.90;4.00;102327.00;;;;6306045;22;20140;-72
2023/03/03 09:18:47;;;;;;;2.00;1.90;;;3.20;99.90;4.90;102328.00;;;;6280287;22;20641;-72
2023/03/03 09:21:34;;;;;;;8.67;4.83;;;3.40;99.90;4.00;102330.00;;;;6306633;22;20215;-73
2023/03/03 09:24:00;;;;;;;7.07;4.80;;;3.40;99.90;4.40;102337.00;;;;6280511;22;20198;-73
2023/03/03 09:26:51;;;;;;;4.90;3.77;;;3.50;99.90;4.70;102325.00;;;;6306180;22;20141;-72
2023/03/03 09:29:36;;;;;;;1.77;1.47;;;3.50;99.90;4.50;102331.00;;;;6306263;22;20133;-73
2023/03/03 09:32:35;;;;;;;5.53;3.43;;;3.60;99.90;4.20;102335.00;;;;6280305;22;20178;-76
2023/03/03 09:35:30;;;;;;;17.83;11.60;;;3.40;99.90;3.90;102321.00;;;;6297193;22;20164;-75
2023/03/03 09:37:56;;;;;;;2.53;2.20;;;3.30;99.90;4.70;102329.00;;;;6292349;22;20301;-75
2023/03/03 09:40:54;;;;;;;11.13;6.53;;;3.60;99.90;3.80;102290.00;;;;6280658;22;20201;-76
2023/03/03 09:44:22;;;;;;;4.50;4.07;;;3.50;99.90;4.10;102329.00;;;;6306212;22;20168;-74
2023/03/03 09:47:19;;;;;;;11.63;5.73;;;3.40;99.90;4.10;102332.00;;;;6157920;23;20174;-74
2023/03/03 09:50:19;;;;;;;12.53;7.27;;;3.50;99.90;4.70;102332.00;;;;6306041;22;20164;-73
2023/03/03 09:52:49;;;;;;;2.90;2.00;;;3.50;99.90;4.30;102340.00;;;;6306200;22;20204;-74
2023/03/03 09:55:49;;;;;;;5.40;2.00;;;3.60;99.90;5.00;102347.00;;;;6280677;22;20237;-75
2023/03/03 09:58:53;;;;;;;3.33;2.13;;;3.90;99.90;5.00;102351.00;;;;6305937;22;20599;-73
2023/03/03 10:01:37;;;;;;;10.07;6.17;;;4.10;99.90;4.40;102345.00;;;;6305587;22;20158;-74
2023/03/03 10:04:28;;;;;;;9.63;5.13;;;3.90;99.90;4.40;102315.00;;;;6305462;22;20199;-74
2023/03/03 10:07:21;;;;;;;11.23;4.77;;;3.90;99.90;4.20;102346.00;;;;6280145;22;20168;-73
2023/03/03 10:10:50;;;;;;;15.80;9.07;;;3.70;99.90;4.90;102332.00;;;;6306185;22;20297;-74
2023/03/03 10:14:07;;;;;;;7.97;7.17;;;3.80;99.90;5.40;102360.00;;;;6299155;22;20490;-74
2023/03/03 10:17:00;;;;;;;8.70;6.87;;;4.30;99.90;4.90;102351.00;;;;6225196;22;20163;-74
2023/03/03 10:19:45;;;;;;;4.33;3.93;;;4.10;99.90;5.20;102356.00;;;;6243799;22;20157;-74
2023/03/03 10:34:03;;;;;;;6.03;5.03;;;3.90;99.90;5.00;102348.00;;;;5163218;27;20541;-75
2023/03/03 10:36:52;;;;;;;4.37;3.90;;;4.10;99.90;5.30;102362.00;;;;5146370;27;20548;-75
2023/03/03 10:39:59;;;;;;;10.47;6.30;;;4.30;99.90;5.20;102367.00;;;;5129184;27;20194;-74
2023/03/03 10:46:29;;;;;;;7.27;6.03;;;4.30;99.90;5.10;102372.00;;;;5093202;27;20295;-75
2023/03/03 10:49:28;;;;;;;8.00;5.50;;;4.40;99.90;4.80;102343.00;;;;5126672;27;20189;-74
2023/03/03 10:52:15;;;;;;;3.97;3.10;;;4.40;99.90;5.70;102375.00;;;;5140223;27;20206;-74
2023/03/03 10:55:18;;;;;;;4.87;3.07;;;4.70;99.90;5.30;102374.00;;;;5131016;27;20183;-75
2023/03/03 10:58:39;;;;;;;4.03;3.70;;;4.60;99.90;5.20;102383.00;;;;5122267;27;20634;-75
2023/03/03 11:01:44;;;;;;;4.90;4.07;;;4.60;99.90;5.50;102376.00;;;;5057925;28;20189;-75
2023/03/03 11:04:58;;;;;;;9.40;5.63;;;4.60;99.90;6.20;102383.00;;;;5120965;27;20245;-76
2023/03/03 11:08:00;;;;;;;6.63;5.07;;;4.70;99.90;5.50;102375.00;;;;5120628;27;20191;-73
2023/03/03 11:11:00;;;;;;;4.23;3.87;;;4.80;99.90;5.60;102342.00;;;;5117777;27;20190;-74
2023/03/03 11:14:06;;;;;;;4.27;3.97;;;4.80;99.90;6.10;102382.00;;;;5142760;27;20191;-74
2023/03/03 11:17:10;;;;;;;5.53;3.67;;;4.80;99.90;6.00;102389.00;;;;5113778;27;20179;-74
2023/03/03 11:20:08;;;;;;;2.77;1.73;;;5.00;99.90;6.50;102389.00;;;;5122010;28;20701;-73
2023/03/03 11:23:18;;;;;;;7.23;4.67;;;5.00;99.90;6.40;102392.00;;;;5117788;28;20233;-73
2023/03/03 11:26:29;;;;;;;5.67;3.67;;;5.30;99.90;6.50;102408.00;;;;5114397;27;20187;-74
2023/03/03 11:29:07;;;;;;;4.33;3.30;;;5.40;99.90;6.00;102399.00;;;;5107270;27;20271;-73
2023/03/03 11:32:02;;;;;;;3.13;2.93;;;5.30;99.90;5.80;102354.00;;;;5114193;27;20223;-71
2023/03/03 11:35:12;;;;;;;7.73;6.10;;;5.20;99.90;6.30;102400.00;;;;5097419;27;20277;-73
2023/03/03 11:38:03;;;;;;;4.17;3.83;;;5.30;99.90;6.50;102363.00;;;;5098350;28;20189;-74
2023/03/03 11:40:54;;;;;;;2.03;1.10;;;5.40;99.90;6.80;102412.00;;;;5131429;27;20518;-73
2023/03/03 11:43:35;;;;;;;6.87;5.37;;;5.50;99.90;5.90;102358.00;;;;5065938;28;20205;-73
2023/03/03 11:46:29;;;;;;;2.13;1.87;;;5.30;99.90;6.10;102384.00;;;;5118273;27;20180;-73
2023/03/03 11:49:05;;;;;;;6.57;3.80;;;5.20;99.90;6.70;102402.00;;;;5099719;27;20192;-74
2023/03/03 11:51:42;;;;;;;8.30;4.80;;;5.50;99.90;6.50;102371.00;;;;5103022;27;20192;-74
2023/03/03 11:54:25;;;;;;;2.57;2.03;;;5.60;99.90;6.70;102405.00;;;;5117089;27;20617;-75
2023/03/03 11:57:17;;;;;;;7.50;3.37;;;5.70;99.90;7.20;102401.00;;;;5130892;27;20236;-75
2023/03/03 12:00:25;;;;;;;3.23;2.93;;;5.80;99.90;7.30;102406.00;;;;5128782;27;20627;-74
2023/03/03 12:03:22;;;;;;;5.80;1.80;;;6.00;99.90;8.10;102412.00;;;;5109821;27;20649;-74
2023/03/03 12:06:00;;;;;;;3.87;3.43;;;6.40;99.90;7.70;102414.00;;;;5123724;27;20205;-74
2023/03/03 12:08:55;;;;;;;5.17;4.77;;;6.40;99.90;7.50;102364.00;;;;5108196;27;20245;-75
2023/03/03 12:11:52;;;;;;;3.10;2.00;;;6.20;99.90;6.90;102392.00;;;;5092654;27;20200;-75
2023/03/03 12:14:39;;;;;;;5.07;3.13;;;6.10;99.90;7.90;102396.00;;;;5106616;27;20272;-75
2023/03/03 12:17:50;;;;;;;3.10;2.40;;;6.20;99.90;7.70;102411.00;;;;5117648;27;20248;-75
2023/03/03 12:20:47;;;;;;;5.00;4.70;;;6.30;99.90;8.40;102413.00;;;;5109615;27;20187;-75
2023/03/03 12:23:54;;;;;;;10.03;5.93;;;6.70;99.90;7.80;102422.00;;;;5099308;28;20192;-74
2023/03/03 12:26:55;;;;;;;4.80;3.90;;;7.00;99.90;7.80;102416.00;;;;5097160;28;20187;-73
2023/03/03 12:29:39;;;;;;;6.70;5.77;;;6.90;99.90;8.50;102411.00;;;;5098130;28;20282;-74
2023/03/03 12:32:14;;;;;;;2.87;2.63;;;7.40;99.90;9.70;102430.00;;;;5113638;27;20695;-74
2023/03/03 12:35:23;;;;;;;1.30;1.30;;;7.90;99.90;9.40;102377.00;;;;5101916;27;20191;-74
2023/03/03 12:38:34;;;;;;;3.13;2.90;;;7.80;99.90;9.50;102423.00;;;;5091579;28;20642;-75
2023/03/03 12:41:26;;;;;;;3.43;2.13;;;8.20;99.90;9.00;102410.00;;;;5094178;27;20538;-74
2023/03/03 12:44:18;;;;;;;6.97;5.33;;;7.90;99.90;8.40;102401.00;;;;5114574;27;20191;-74
2023/03/03 12:47:14;;;;;;;2.87;2.17;;;7.50;99.90;8.90;102409.00;;;;5097291;28;20180;-74
2023/03/03 12:50:08;;;;;;;2.30;1.70;;;7.60;99.90;8.50;102415.00;;;;5087313;28;20309;-74
2023/03/03 12:53:08;;;;;;;3.83;3.50;;;7.50;99.90;7.90;102391.00;;;;5108844;27;20256;-74
2023/03/03 12:56:00;;;;;;;1.60;1.57;;;6.90;99.90;9.80;102384.00;;;;5096679;27;20188;-74
2023/03/03 12:59:04;;;;;;;2.87;1.67;;;7.50;99.90;9.80;102428.00;;;;5104197;27;20275;-71
2023/03/03 13:01:55;;;;;;;3.10;2.83;;;8.30;99.90;10.00;102420.00;;;;5082943;28;20199;-73
2023/03/03 13:04:55;;;;;;;4.20;3.37;;;8.60;99.90;8.40;102406.00;;;;5103957;28;20195;-71
2023/03/03 13:07:30;;;;;;;1.27;1.20;;;8.00;99.90;9.50;102400.00;;;;5096464;28;20205;-71
2023/03/03 13:10:17;;;;;;;2.97;2.63;;;8.10;99.90;8.90;102388.00;;;;5104682;27;20188;-71
2023/03/03 13:13:00;;;;;;;1.77;1.30;;;7.90;99.90;9.10;102394.00;;;;5119717;27;20376;-71
2023/03/03 13:16:01;;;;;;;3.77;2.57;;;7.70;99.90;9.40;102399.00;;;;5100087;27;20184;-71
2023/03/03 13:18:57;;;;;;;6.13;3.73;;;8.00;99.90;8.20;102387.00;;;;5107722;27;20293;-76
2023/03/03 13:22:01;;;;;;;3.13;2.10;;;7.80;99.90;9.70;102394.00;;;;5115410;27;20247;-71
2023/03/03 13:25:31;;;;;;;3.63;3.27;;;7.70;99.90;9.30;102404.00;;;;5061180;27;20200;-72
2023/03/03 13:28:25;;;;;;;3.87;3.57;;;8.40;99.90;9.90;102401.00;;;;5111064;27;20212;-72
2023/03/03 13:31:15;;;;;;;1.80;1.70;;;8.30;99.90;9.80;102393.00;;;;5121328;27;20202;-71
2023/03/03 13:33:52;;;;;;;4.33;2.20;;;8.20;99.90;9.90;102401.00;;;;5095658;28;20196;-72
2023/03/03 13:36:19;;;;;;;1.53;0.93;;;8.30;99.90;10.60;102366.00;;;;5124416;27;20253;-72
2023/03/03 13:38:54;;;;;;;1.13;1.03;;;8.50;99.90;11.10;102403.00;;;;5105890;27;20185;-72
2023/03/03 13:41:47;;;;;;;1.53;1.43;;;8.70;99.90;10.80;102391.00;;;;5104838;27;20649;-72
2023/03/03 13:44:25;;;;;;;0.70;0.70;;;8.90;99.90;9.80;102426.00;;;;5092205;27;20183;-71
2023/03/03 13:47:34;;;;;;;0.33;0.33;;;8.60;99.90;10.50;102382.00;;;;5099852;27;20216;-72
2023/03/03 13:50:34;;;;;;;0.53;0.40;;;8.40;99.90;10.60;102390.00;;;;5084399;27;20192;-72
2023/03/03 13:53:25;;;;;;;2.00;1.60;;;9.00;99.90;9.20;102396.00;;;;5117596;27;20651;-72
2023/03/03 13:56:23;;;;;;;0.63;0.33;;;8.40;99.90;8.80;102401.00;;;;5095891;28;20209;-72
2023/03/03 13:59:10;;;;;;;1.00;0.90;;;8.00;99.90;10.00;102400.00;;;;5099799;28;20547;-72
2023/03/03 14:02:24;;;;;;;4.13;2.57;;;8.30;99.90;9.70;102405.00;;;;5099908;28;20552;-73
2023/03/03 14:05:10;;;;;;;3.57;0.60;;;8.50;99.90;10.00;102389.00;;;;5124079;27;20224;-73
2023/03/03 14:08:08;;;;;;;0.83;0.83;;;8.40;99.90;10.80;102394.00;;;;5119732;27;20179;-71
2023/03/03 14:10:48;;;;;;;2.83;1.13;;;8.60;99.90;10.70;102403.00;;;;5096564;27;20182;-72
2023/03/03 14:13:29;;;;;;;3.40;1.80;;;9.00;99.90;10.30;102403.00;;;;5102898;28;20226;-72
2023/03/03 14:16:26;;;;;;;0.87;0.80;;;8.70;99.90;10.30;102409.00;;;;5092517;27;20179;-71
2023/03/03 14:19:24;;;;;;;0.23;0.23;;;8.60;99.90;9.90;102410.00;;;;5097941;28;20181;-71
2023/03/03 14:22:24;;;;;;;0.10;0.10;;;8.40;99.90;10.70;102392.00;;;;5109143;27;20193;-73
2023/03/03 14:25:12;;;;;;;1.20;1.20;;;8.60;99.90;10.80;102404.00;;;;5105555;28;20628;-72
2023/03/03 14:27:45;;;;;;;1.00;0.93;;;8.80;99.90;10.70;102405.00;;;;5088441;27;20227;-72
2023/03/03 14:30:42;;;;;;;0.53;0.53;;;8.80;99.90;10.20;102404.00;;;;5096228;28;20192;-71
2023/03/03 14:33:31;;;;;;;0.20;0.20;;;8.60;99.90;10.60;102397.00;;;;5106526;28;20613;-72
2023/03/03 14:35:56;;;;;;;0.20;0.20;;;8.70;99.90;10.40;102397.00;;;;5099617;28;20646;-71
2023/03/03 14:38:36;;;;;;;0.87;0.57;;;8.70;99.90;11.10;102397.00;;;;5100817;28;20193;-72
2023/03/03 14:41:14;;;;;;;0.70;0.30;;;9.00;99.90;11.70;102408.00;;;;5115252;28;20185;-72
2023/03/03 14:44:08;;;;;;;2.37;2.17;;;9.50;99.90;11.30;102422.00;;;;5098913;28;20651;-72
2023/03/03 14:46:40;;;;;;;0.43;0.43;;;9.50;99.90;11.60;102416.00;;;;5117148;28;20199;-72
2023/03/03 14:49:36;;;;;;;2.17;1.27;;;9.50;99.90;10.20;102432.00;;;;5096033;28;20182;-71
2023/03/03 14:52:26;;;;;;;0.57;0.50;;;9.10;99.90;10.10;102425.00;;;;5104842;28;20208;-71
2023/03/03 14:55:31;;;;;;;0.20;0.20;;;8.80;99.90;10.20;102414.00;;;;5095622;28;20261;-73
2023/03/03 14:58:03;;;;;;;2.53;1.60;;;8.60;99.90;9.80;102422.00;;;;5099521;28;20174;-72
2023/03/03 15:00:37;;;;;;;0.37;0.37;;;8.60;99.90;10.60;102404.00;;;;5125605;28;20191;-72
2023/03/03 15:03:27;;;;;;;1.07;0.67;;;8.50;99.90;10.30;102389.00;;;;5099218;28;20276;-72
2023/03/03 15:05:56;;;;;;;1.13;1.13;;;8.60;99.90;9.90;102410.00;;;;5118278;28;20186;-72
2023/03/03 15:08:46;;;;;;;0.30;0.30;;;8.50;99.90;10.80;102394.00;;;;5110124;28;20186;-72
2023/03/03 15:11:38;;;;;;;2.70;1.53;;;8.70;99.90;10.30;102402.00;;;;5105399;28;20252;-71
2023/03/03 15:14:41;;;;;;;0.97;0.97;;;8.60;99.90;10.30;102398.00;;;;5088702;28;20235;-71
2023/03/03 15:17:24;;;;;;;0.50;0.50;;;8.50;99.90;10.60;102402.00;;;;5077220;28;20678;-72
2023/03/03 15:20:08;;;;;;;0.60;0.60;;;8.50;99.90;10.00;102402.00;;;;5083733;27;20629;-73
2023/03/03 15:23:17;;;;;;;0.20;0.20;;;8.40;99.90;10.30;102398.00;;;;5108107;28;20277;-72
2023/03/03 15:26:09;;;;;;;2.67;1.77;;;8.40;99.90;10.20;102397.00;;;;5107894;27;20235;-72
2023/03/03 15:28:50;;;;;;;2.07;1.63;;;8.50;99.90;10.20;102401.00;;;;5106975;27;20182;-73
2023/03/03 15:31:50;;;;;;;2.60;1.67;;;8.50;99.90;9.80;102383.00;;;;5088039;27;20203;-72
2023/03/03 15:34:50;;;;;;;0.33;0.33;;;8.40;99.90;11.30;102392.00;;;;5100311;27;20639;-72
2023/03/03 15:37:30;;;;;;;0.70;0.70;;;8.70;99.90;10.60;102411.00;;;;5094212;27;20186;-72
2023/03/03 15:40:25;;;;;;;0.27;0.27;;;8.90;99.90;11.00;102404.00;;;;5116681;28;20269;-72
2023/03/03 15:43:09;;;;;;;0.97;0.97;;;8.90;99.90;10.90;102406.00;;;;5101885;28;20172;-73
2023/03/03 15:46:03;;;;;;;1.37;1.27;;;8.90;99.90;10.10;102422.00;;;;5117201;27;20187;-72
2023/03/03 15:49:23;;;;;;;0.47;0.47;;;8.60;99.90;9.50;102426.00;;;;5116531;27;20201;-73
2023/03/03 15:52:21;;;;;;;0.63;0.50;;;8.30;99.90;10.00;102370.00;;;;5116088;27;20216;-73
2023/03/03 15:55:19;;;;;;;1.03;0.97;;;8.30;99.90;9.90;102401.00;;;;5098303;28;20547;-72
2023/03/03 15:59:00;;;;;;;0.93;0.93;;;8.30;99.90;9.80;102400.00;;;;5086432;28;20181;-72
2023/03/03 16:02:00;;;;;;;0.30;0.30;;;8.30;99.90;9.90;102387.00;;;;5090216;28;20195;-72
2023/03/03 16:04:35;;;;;;;0.53;0.53;;;8.20;99.90;10.20;102387.00;;;;5123200;27;20211;-71
2023/03/03 16:07:16;;;;;;;0.47;0.47;;;8.30;99.90;10.00;102356.00;;;;5085649;28;20202;-72
2023/03/03 16:10:15;;;;;;;0.17;0.17;;;8.40;99.90;11.20;102385.00;;;;5091137;28;20226;-72
2023/03/03 16:13:10;;;;;;;0.43;0.43;;;8.60;99.90;11.10;102390.00;;;;5113029;27;20551;-73
2023/03/03 16:16:00;;;;;;;0.87;0.87;;;8.70;99.90;10.40;102397.00;;;;5026791;28;20658;-72
2023/03/03 16:18:35;;;;;;;0.10;0.10;;;8.70;99.90;11.50;102392.00;;;;5097763;28;20679;-72
2023/03/03 16:21:43;;;;;;;0.20;0.20;;;8.90;99.90;11.30;102371.00;;;;5111186;28;20193;-72
2023/03/03 16:24:40;;;;;;;0.20;0.20;;;9.10;99.90;11.40;102403.00;;;;5110857;28;20177;-71
2023/03/03 16:27:20;;;;;;;0.10;0.10;;;8.90;99.90;11.40;102402.00;;;;5115412;27;20197;-71
2023/03/03 16:30:22;;;;;;;0.20;0.20;;;9.00;99.90;11.60;102405.00;;;;5099023;28;20234;-72
2023/03/03 16:33:13;;;;;;;2.40;2.30;;;9.00;99.90;11.70;102409.00;;;;5093503;28;20417;-73
2023/03/03 16:36:24;;;;;;;0.30;0.30;;;9.20;99.90;11.80;102419.00;;;;5108022;27;20225;-72
2023/03/03 16:39:19;;;;;;;0.33;0.33;;;9.20;99.90;11.00;102430.00;;;;5057897;27;20638;-72
2023/03/03 16:42:02;;;;;;;0.20;0.20;;;9.00;99.90;10.80;102432.00;;;;5101234;27;20187;-72
2023/03/03 16:45:13;;;;;;;3.07;0.87;;;8.80;99.90;11.30;102415.00;;;;5109672;28;20190;-72
2023/03/03 16:48:21;;;;;;;0.20;0.20;;;8.70;99.90;10.90;102395.00;;;;5101291;27;20180;-72
2023/03/03 16:51:19;;;;;;;0.40;0.40;;;8.80;99.90;10.70;102428.00;;;;5111682;27;20185;-74
2023/03/03 16:54:02;;;;;;;0.30;0.30;;;8.70;99.90;10.70;102425.00;;;;5097034;28;20639;-72
2023/03/03 16:56:53;;;;;;;1.47;1.37;;;8.80;99.90;10.70;102426.00;;;;5100568;27;20175;-72
2023/03/03 17:00:00;;;;;;;0.20;0.20;;;8.80;99.90;10.20;102431.00;;;;5110555;27;20268;-70
2023/03/03 17:03:10;;;;;;;0.23;0.23;;;8.40;99.90;10.80;102423.00;;;;5109313;27;20207;-72
2023/03/03 17:06:07;;;;;;;0.60;0.60;;;8.50;99.90;10.30;102426.00;;;;5128619;27;20633;-72
2023/03/03 17:09:13;;;;;;;0.20;0.20;;;8.40;99.90;10.40;102432.00;;;;5093656;27;20178;-71
2023/03/03 17:12:08;;;;;;;0.40;0.40;;;8.40;99.90;10.40;102439.00;;;;5088682;28;20682;-72
2023/03/03 17:15:29;;;;;;;0.30;0.30;;;8.40;99.90;11.10;102417.00;;;;5114747;28;20182;-72
2023/03/03 17:18:46;;;;;;;0.73;0.73;;;8.60;99.90;11.40;102427.00;;;;5107957;27;20193;-72
2023/03/03 17:21:40;;;;;;;0.33;0.33;;;8.90;99.90;11.10;102441.00;;;;5079037;27;20212;-73
2023/03/03 17:24:30;;;;;;;0.20;0.20;;;8.90;99.90;11.20;102428.00;;;;5096535;28;20536;-74
2023/03/03 17:27:10;;;;;;;0.30;0.30;;;8.70;99.90;11.80;102426.00;;;;5123382;27;20235;-73
2023/03/03 17:30:13;;;;;;;0.23;0.23;;;9.00;99.90;11.30;102439.00;;;;5100358;27;20185;-73
2023/03/03 17:33:19;;;;;;;1.33;1.10;;;9.00;99.90;10.80;102406.00;;;;5109433;27;20225;-72
2023/03/03 17:36:26;;;;;;;0.40;0.40;;;8.80;99.90;10.90;102435.00;;;;5130992;27;20531;-72
2023/03/03 17:39:35;;;;;;;0.20;0.20;;;8.70;99.90;10.90;102431.00;;;;5106103;28;20209;-72
2023/03/03 17:42:30;;;;;;;0.20;0.20;;;8.80;99.90;10.90;102443.00;;;;5126156;27;20188;-72
2023/03/03 17:45:09;;;;;;;1.50;0.90;;;8.70;99.90;11.00;102451.00;;;;5114316;27;20196;-72
2023/03/03 17:47:50;;;;;;;2.63;1.73;;;8.70;99.90;10.40;102449.00;;;;5095962;28;20186;-72
2023/03/03 17:50:59;;;;;;;0.20;0.20;;;8.60;99.90;9.60;102444.00;;;;5113561;27;20200;-72
2023/03/03 17:54:02;;;;;;;2.13;1.30;;;8.10;99.90;9.50;102445.00;;;;5115995;27;20602;-72
2023/03/03 17:56:56;;;;;;;0.57;0.57;;;8.10;99.90;9.70;102406.00;;;;5116004;27;20194;-73
2023/03/03 18:00:22;;;;;;;0.80;0.80;;;7.90;99.90;9.80;102432.00;;;;5126622;27;20251;-73
2023/03/03 18:03:26;;;;;;;1.87;1.67;;;7.80;99.90;8.90;102431.00;;;;5100333;27;20706;-72
2023/03/03 18:06:26;;;;;;;0.40;0.40;;;7.60;99.90;9.20;102437.00;;;;5104692;28;20845;-74
2023/03/03 18:09:10;;;;;;;0.30;0.30;;;7.50;99.90;9.70;102412.00;;;;5107991;27;20184;-72
2023/03/03 18:12:00;;;;;;;1.50;1.40;;;7.60;99.90;9.00;102405.00;;;;5100622;27;20212;-72
2023/03/03 18:14:53;;;;;;;0.20;0.20;;;7.60;99.90;9.80;102409.00;;;;5105222;28;20634;-72
2023/03/03 18:18:05;;;;;;;0.47;0.47;;;7.60;99.90;9.10;102446.00;;;;5116263;27;20195;-72
2023/03/03 18:21:01;;;;;;;2.00;0.57;;;7.70;99.90;9.60;102463.00;;;;5052999;28;20194;-72
2023/03/03 18:23:38;;;;;;;0.20;0.20;;;7.80;99.90;10.20;102451.00;;;;5107984;28;20238;-71
2023/03/03 18:26:38;;;;;;;0.20;0.20;;;7.90;99.90;9.90;102463.00;;;;5086863;27;20175;-69
2023/03/03 18:29:18;;;;;;;0.93;0.93;;;8.00;99.90;9.30;102457.00;;;;5046220;28;20657;-69
2023/03/03 18:32:21;;;;;;;0.30;0.30;;;7.70;99.90;9.30;102452.00;;;;5103763;28;20215;-71
2023/03/03 18:35:57;;;;;;;1.20;1.20;;;7.70;99.90;10.10;102457.00;;;;5089018;28;20594;-69
2023/03/03 18:38:34;;;;;;;0.77;0.57;;;7.80;99.90;10.50;102444.00;;;;5100595;28;20188;-69
2023/03/03 18:41:32;;;;;;;0.20;0.20;;;7.90;99.90;10.50;102462.00;;;;5098476;28;20257;-69
2023/03/03 18:44:24;;;;;;;0.53;0.53;;;8.00;99.90;9.70;102452.00;;;;5115722;28;20546;-69
2023/03/03 18:47:21;;;;;;;1.37;1.27;;;7.80;99.90;9.60;102461.00;;;;5102048;28;20638;-69
2023/03/03 18:50:13;;;;;;;0.20;0.20;;;7.70;99.90;10.30;102464.00;;;;5103838;28;20188;-69
2023/03/03 18:53:21;;;;;;;2.93;1.33;;;7.90;99.90;9.00;102465.00;;;;5087732;28;20299;-69
2023/03/03 18:56:02;;;;;;;0.90;0.90;;;7.70;99.90;9.40;102440.00;;;;5114068;28;20182;-68
2023/03/03 18:58:40;;;;;;;0.10;0.10;;;7.70;99.90;9.00;102455.00;;;;5115735;28;20185;-68
2023/03/03 19:01:40;;;;;;;0.57;0.53;;;7.50;99.90;9.40;102462.00;;;;5095990;28;20643;-69
2023/03/03 19:04:19;;;;;;;0.87;0.87;;;7.50;99.90;9.50;102469.00;;;;5100673;27;20184;-69
2023/03/03 19:06:51;;;;;;;1.00;0.77;;;7.50;99.90;10.00;102468.00;;;;5108403;28;20187;-69
2023/03/03 19:09:56;;;;;;;0.20;0.20;;;7.60;99.90;9.60;102430.00;;;;5118667;27;20262;-67
2023/03/03 19:12:47;;;;;;;0.40;0.40;;;7.70;99.90;10.00;102464.00;;;;5105837;28;20684;-68
2023/03/03 19:15:34;;;;;;;0.70;0.70;;;7.70;99.90;9.20;102477.00;;;;5112993;27;20180;-68
2023/03/03 19:18:27;;;;;;;1.03;0.70;;;7.60;99.90;9.90;102459.00;;;;5125313;27;20180;-68
2023/03/03 19:21:04;;;;;;;2.80;1.97;;;7.50;99.90;9.00;102429.00;;;;5097284;27;20183;-68
2023/03/03 19:23:59;;;;;;;0.60;0.60;;;7.50;99.90;9.30;102437.00;;;;5124456;27;20221;-67
2023/03/03 19:26:30;;;;;;;0.20;0.20;;;7.40;99.90;9.20;102434.00;;;;5113611;27;20211;-68
2023/03/03 19:29:02;;;;;;;0.20;0.20;;;7.30;99.90;10.10;102458.00;;;;5111347;28;20191;-68
2023/03/03 19:31:55;;;;;;;0.20;0.20;;;7.60;99.90;10.10;102454.00;;;;5109267;27;20239;-68
2023/03/03 19:34:43;;;;;;;0.20;0.20;;;7.70;99.90;9.30;102489.00;;;;5095149;27;20651;-68
2023/03/03 19:37:50;;;;;;;0.20;0.20;;;7.70;99.90;9.60;102470.00;;;;5116760;27;20177;-68
2023/03/03 19:41:00;;;;;;;1.97;1.87;;;7.30;99.90;9.80;102494.00;;;;5117944;27;20185;-68
2023/03/03 19:44:06;;;;;;;2.60;2.40;;;7.50;99.90;9.30;102487.00;;;;5120347;27;20186;-68
2023/03/03 19:46:53;;;;;;;0.90;0.90;;;7.40;99.90;9.30;102481.00;;;;5116137;27;20179;-67
2023/03/03 19:49:43;;;;;;;1.10;1.00;;;7.30;99.90;9.70;102479.00;;;;5100776;28;20210;-67
2023/03/03 19:53:15;;;;;;;0.60;0.53;;;7.40;99.90;9.50;102459.00;;;;5119367;27;20708;-67
2023/03/03 19:56:00;;;;;;;0.93;0.93;;;7.30;99.90;10.20;102496.00;;;;5063451;28;20205;-68
2023/03/03 19:59:12;;;;;;;0.20;0.20;;;7.70;99.90;10.20;102507.00;;;;5070911;27;20241;-68
2023/03/03 20:01:44;;;;;;;1.43;1.20;;;7.90;99.90;10.00;102516.00;;;;5089870;27;20538;-68
2023/03/03 20:05:05;;;;;;;0.30;0.30;;;7.80;99.90;9.90;102521.00;;;;5105941;27;20184;-68
2023/03/03 20:07:47;;;;;;;0.20;0.20;;;7.70;99.90;10.30;102520.00;;;;5122050;27;20210;-68
2023/03/03 20:10:47;;;;;;;0.20;0.20;;;7.70;99.90;10.10;102496.00;;;;5110471;28;20180;-69
2023/03/03 20:13:52;;;;;;;0.50;0.50;;;7.60;99.90;9.70;102532.00;;;;5115196;27;20219;-69
2023/03/03 20:16:35;;;;;;;0.70;0.70;;;7.60;99.90;9.90;102540.00;;;;5082006;27;20195;-68
2023/03/03 20:19:40;;;;;;;2.07;1.97;;;7.50;99.90;9.80;102539.00;;;;5103938;28;20188;-68
2023/03/03 20:22:47;;;;;;;4.03;3.47;;;7.60;99.90;9.10;102545.00;;;;5101274;27;20673;-68
2023/03/03 20:25:41;;;;;;;0.23;0.23;;;7.60;99.90;9.10;102496.00;;;;5091236;27;20182;-68
2023/03/03 20:28:55;;;;;;;3.63;2.13;;;7.20;99.90;9.00;102482.00;;;;5074719;27;20188;-68
2023/03/03 20:32:30;;;;;;;0.43;0.43;;;7.20;99.90;9.70;102526.00;;;;5087725;27;20202;-68
2023/03/03 20:35:24;;;;;;;1.47;1.37;;;7.30;99.90;9.80;102534.00;;;;5082815;28;20227;-68
2023/03/03 20:38:09;;;;;;;1.43;0.73;;;7.50;99.90;10.00;102546.00;;;;5109627;27;20170;-68
2023/03/03 20:41:07;;;;;;;2.40;2.20;;;7.50;99.90;9.40;102527.00;;;;5113866;28;20239;-67